KMCN/MCN METAR and TAF weather

Enter ICAO airport designator
Station Type Date Time Source
KMCN METAR 2022/06/28 23:53 UTC NOAA

KMCN 282353Z AUTO 07009KT 10SM CLR 28/21 A3010 RMK AO2 SLP188 T02780206 10317 20267 50004


Station Type Date Time Source
KMCN Decoded METAR 2022/06/28 23:53 UTC NOAA

MIDDLE GEORGIA REGIONAL AIRPORT , GA, United States (KMCN) 32-41N 83-39W 109M
Jun 28, 2022 - 07:53 PM EDT / 2022.06.28 2353 UTC
Wind: from the ENE (070 degrees) at 10 MPH (9 KT):0
Visibility: 10 mile(s):0
Sky conditions: clear
Temperature: 82.0 F (27.8 C)
Dew Point: 69.1 F (20.6 C)
Relative Humidity: 64%
Pressure (altimeter): 30.1 in. Hg (1019 hPa)
Pressure tendency: 0.01 inches (0.4 hPa) higher than three hours ago
ob: KMCN 282353Z AUTO 07009KT 10SM CLR 28/21 A3010 RMK AO2 SLP188 T02780206 10317 20267 50004
cycle: 0

Station Type Date Time Source
KMCN TAF 2022/06/28 22:57 UTC NOAA

TAF
AMD KMCN 282154Z 2822/2918 05008KT P6SM -SHRA FEW050 SCT090
TEMPO 2822/2824 VRB10G25KT 4SM TSRA BR BKN035CB
FM290200 10004KT P6SM BKN040
FM290800 VRB03KT P6SM BKN008 BKN025
FM291400 10005KT P6SM BKN010
FM291700 10006KT P6SM VCSH SCT040 BKN070

Example: see airport list